Time;durP1;ratioP1;P1;durP2;ratioP2;P2;SDS_P1;SDS_P2;PMS_P1;PMS_P2;Temp;Humidity;BMP_temperature;BMP_pressure;BME280_temperature;BME280_humidity;BME280_pressure;Samples;Min_cycle;Max_cycle;Signal;HPM_P1;HPM_P2
2023/10/17 00:01:47;;;;;;;13.25;7.22;;;7.60;99.90;;;;;;5072005;28;20060;-81
2023/10/17 00:06:50;;;;;;;13.75;6.57;;;7.60;99.90;;;;;;5103022;28;20047;-82
2023/10/17 00:09:23;;;;;;;13.50;6.82;;;7.60;99.90;;;;;;5109668;28;20398;-82
2023/10/17 00:14:17;;;;;;;;;;;7.70;99.90;;;;;;5107447;28;20162;-82
2023/10/17 00:16:43;;;;;;;13.30;6.95;;;7.70;99.90;;;;;;5108926;28;19921;-80
2023/10/17 00:19:09;;;;;;;14.93;6.70;;;8.20;99.90;;;;;;5101682;28;20044;-81
2023/10/17 00:21:41;;;;;;;17.90;7.43;;;7.70;99.90;;;;;;5088156;28;20133;-81
2023/10/17 00:24:11;;;;;;;13.20;7.28;;;7.70;99.90;;;;;;5080956;28;20043;-82
2023/10/17 00:26:41;;;;;;;14.23;7.40;;;7.70;99.90;;;;;;5099025;28;20616;-81
2023/10/17 00:29:07;;;;;;;16.10;7.65;;;7.70;99.90;;;;;;5109153;28;20037;-83
2023/10/17 00:31:37;;;;;;;18.58;7.85;;;7.70;99.90;;;;;;5081117;28;20040;-82
2023/10/17 00:34:24;;;;;;;15.20;7.60;;;7.70;99.90;;;;;;5083068;28;20066;-83
2023/10/17 00:36:52;;;;;;;13.10;7.40;;;7.70;99.90;;;;;;5097448;28;20040;-82
2023/10/17 00:39:32;;;;;;;16.90;7.70;;;7.80;99.90;;;;;;5090988;28;20051;-82
2023/10/17 00:44:38;;;;;;;12.48;6.18;;;7.80;99.90;;;;;;5085965;28;20482;-81
2023/10/17 00:47:11;;;;;;;15.70;5.68;;;7.80;99.90;;;;;;5084851;28;20055;-82
2023/10/17 00:49:44;;;;;;;22.30;4.85;;;7.80;99.90;;;;;;5087917;28;20121;-82
2023/10/17 00:52:24;;;;;;;12.63;5.80;;;7.80;99.90;;;;;;5091669;28;20402;-81
2023/10/17 00:54:53;;;;;;;11.90;5.32;;;7.80;99.90;;;;;;5077180;28;20045;-82
2023/10/17 00:57:22;;;;;;;10.00;5.63;;;7.80;99.90;;;;;;5069319;28;20039;-82
2023/10/17 00:59:53;;;;;;;10.05;4.82;;;7.80;99.90;;;;;;5096886;28;20044;-81
2023/10/17 01:02:23;;;;;;;12.77;5.22;;;7.80;99.90;;;;;;5093966;28;20053;-81
2023/10/17 01:04:56;;;;;;;15.88;5.53;;;7.80;99.90;;;;;;5093624;28;20049;-81
2023/10/17 01:07:34;;;;;;;12.77;6.68;;;8.20;99.90;;;;;;5085202;28;20048;-81
2023/10/17 01:10:16;;;;;;;14.63;5.38;;;7.80;99.90;;;;;;5096706;28;20142;-81
2023/10/17 01:12:53;;;;;;;10.90;4.22;;;7.80;99.90;;;;;;5082240;28;20051;-81
2023/10/17 01:15:24;;;;;;;9.73;4.30;;;7.80;99.90;;;;;;5074975;28;20529;-81
2023/10/17 01:17:54;;;;;;;13.23;4.55;;;7.90;99.90;;;;;;5085848;28;20058;-81
2023/10/17 01:20:20;;;;;;;9.80;4.70;;;7.90;99.90;;;;;;5097953;28;20040;-82
2023/10/17 01:22:47;;;;;;;8.63;4.22;;;7.90;99.90;;;;;;5102462;28;20486;-81
2023/10/17 01:25:24;;;;;;;7.45;4.10;;;7.90;99.90;;;;;;5066058;28;20048;-82
2023/10/17 01:27:54;;;;;;;9.95;4.55;;;7.90;99.90;;;;;;5101315;28;20036;-82
2023/10/17 01:30:21;;;;;;;7.93;4.25;;;7.90;99.90;;;;;;5083732;28;20069;-81
2023/10/17 01:32:48;;;;;;;12.02;4.28;;;7.90;99.90;;;;;;5091069;28;20042;-80
2023/10/17 01:35:19;;;;;;;5.72;3.28;;;7.90;99.90;;;;;;5090134;28;20132;-81
2023/10/17 01:37:49;;;;;;;7.65;3.95;;;7.80;99.90;;;;;;5098735;28;20082;-80
2023/10/17 01:40:26;;;;;;;10.35;4.22;;;7.80;99.90;;;;;;5107458;28;20055;-80
2023/10/17 01:42:58;;;;;;;11.43;4.30;;;7.80;99.90;;;;;;5082922;28;20489;-81
2023/10/17 01:45:30;;;;;;;11.52;4.15;;;7.80;99.90;;;;;;5100324;28;20036;-81
2023/10/17 01:47:56;;;;;;;8.52;3.95;;;8.10;99.90;;;;;;5104583;28;20040;-80
2023/10/17 01:50:24;;;;;;;9.90;4.40;;;7.80;99.90;;;;;;5106152;28;20036;-83
2023/10/17 01:52:53;;;;;;;7.15;3.88;;;7.80;99.90;;;;;;5102609;28;20041;-81
2023/10/17 01:55:24;;;;;;;9.30;3.50;;;7.90;99.90;;;;;;5123707;28;20051;-81
2023/10/17 01:57:54;;;;;;;10.23;4.13;;;7.80;99.90;;;;;;5089822;28;20044;-81
2023/10/17 02:00:38;;;;;;;8.02;4.03;;;7.80;99.90;;;;;;5080159;28;20047;-81
2023/10/17 02:03:12;;;;;;;18.25;4.65;;;7.80;99.90;;;;;;5105319;28;20048;-81
2023/10/17 02:05:38;;;;;;;8.05;3.80;;;7.80;99.90;;;;;;5109886;28;20068;-79
2023/10/17 02:08:05;;;;;;;12.02;3.72;;;7.80;99.90;;;;;;5110514;28;20051;-80
2023/10/17 02:10:31;;;;;;;8.73;3.60;;;7.80;99.90;;;;;;5088116;28;20044;-80
2023/10/17 02:12:57;;;;;;;8.55;3.65;;;7.80;99.90;;;;;;5091286;28;20072;-80
2023/10/17 02:15:23;;;;;;;7.70;3.60;;;7.80;99.90;;;;;;5110796;28;20046;-82
2023/10/17 02:17:53;;;;;;;8.48;3.55;;;7.80;99.90;;;;;;5111802;28;20073;-81
2023/10/17 02:22:55;;;;;;;12.80;4.15;;;7.80;99.90;;;;;;5115685;28;20044;-81
2023/10/17 02:25:21;;;;;;;9.65;3.40;;;7.80;99.90;;;;;;5112143;28;20043;-81
2023/10/17 02:27:48;;;;;;;9.70;4.13;;;7.90;99.90;;;;;;5111169;28;20108;-81
2023/10/17 02:30:15;;;;;;;12.43;3.60;;;7.80;99.90;;;;;;5107416;28;20051;-81
2023/10/17 02:32:51;;;;;;;9.57;3.72;;;7.70;99.90;;;;;;5108516;28;20044;-81
2023/10/17 02:35:20;;;;;;;10.32;3.92;;;7.60;99.90;;;;;;5104845;28;20105;-81
2023/10/17 02:37:48;;;;;;;10.02;3.92;;;7.60;99.90;;;;;;5112683;28;20050;-81
2023/10/17 02:40:20;;;;;;;8.48;3.90;;;7.60;99.90;;;;;;5114442;28;20051;-82
2023/10/17 02:42:47;;;;;;;10.80;3.88;;;7.50;99.90;;;;;;5104279;28;20052;-80
2023/10/17 02:45:14;;;;;;;11.18;3.95;;;7.50;99.90;;;;;;5114141;28;20119;-80
2023/10/17 02:47:43;;;;;;;9.60;4.47;;;7.40;99.90;;;;;;5100362;28;20470;-80
2023/10/17 02:50:26;;;;;;;9.13;3.80;;;7.40;99.90;;;;;;5105872;28;20040;-81
2023/10/17 02:52:52;;;;;;;8.45;3.80;;;7.50;99.90;;;;;;5102390;28;20040;-81
2023/10/17 02:55:24;;;;;;;9.27;4.20;;;7.30;99.90;;;;;;5093242;28;20068;-81
2023/10/17 02:57:53;;;;;;;8.32;4.03;;;7.20;99.90;;;;;;5083575;28;20438;-79
2023/10/17 03:00:22;;;;;;;9.65;4.13;;;7.20;99.90;;;;;;5114436;28;20070;-81
2023/10/17 03:02:58;;;;;;;10.93;4.82;;;7.20;99.90;;;;;;5104302;28;20081;-82
2023/10/17 03:05:25;;;;;;;8.35;4.80;;;7.20;99.90;;;;;;5108687;28;20044;-81
2023/10/17 03:07:54;;;;;;;9.25;4.88;;;7.10;99.90;;;;;;5102511;28;20040;-81
2023/10/17 03:10:37;;;;;;;8.30;4.93;;;7.10;99.90;;;;;;5106997;28;20048;-83
2023/10/17 03:15:48;;;;;;;10.10;4.82;;;7.10;99.90;;;;;;5094685;28;20072;-82
2023/10/17 03:18:16;;;;;;;7.95;4.25;;;7.00;99.90;;;;;;5100319;28;20046;-81
2023/10/17 03:20:53;;;;;;;14.25;5.15;;;6.90;99.90;;;;;;5070777;28;20070;-82
2023/10/17 03:23:20;;;;;;;10.93;4.97;;;6.90;99.90;;;;;;5098279;28;20123;-82
2023/10/17 03:25:46;;;;;;;11.60;5.20;;;6.90;99.90;;;;;;5102309;28;20052;-82
2023/10/17 03:28:13;;;;;;;10.32;5.93;;;6.80;99.90;;;;;;5100375;28;20068;-80
2023/10/17 03:30:39;;;;;;;8.85;4.53;;;6.80;99.90;;;;;;5077629;28;20044;-81
2023/10/17 03:33:08;;;;;;;12.15;5.10;;;6.80;99.90;;;;;;5087861;28;20048;-81
2023/10/17 03:35:45;;;;;;;11.98;5.13;;;6.90;99.90;;;;;;5109588;28;20047;-81
2023/10/17 03:38:14;;;;;;;13.73;5.20;;;6.70;99.90;;;;;;5107061;28;20141;-82
2023/10/17 03:40:41;;;;;;;10.70;5.38;;;6.80;99.90;;;;;;5119267;28;20036;-81
2023/10/17 03:43:12;;;;;;;14.63;5.57;;;6.80;99.90;;;;;;5107139;28;20083;-80
2023/10/17 03:48:25;;;;;;;9.93;4.38;;;6.80;99.90;;;;;;5115473;28;20079;-79
2023/10/17 03:51:08;;;;;;;14.20;4.97;;;6.90;99.90;;;;;;5098983;28;20497;-78
2023/10/17 03:53:47;;;;;;;10.68;5.18;;;7.00;99.90;;;;;;5092585;28;20040;-81
2023/10/17 03:56:23;;;;;;;16.30;5.25;;;7.10;99.90;;;;;;5107587;28;20048;-81
2023/10/17 03:59:18;;;;;;;10.10;4.88;;;7.10;99.90;;;;;;5106345;28;20048;-80
2023/10/17 04:01:49;;;;;;;13.88;5.25;;;7.10;99.90;;;;;;5099613;28;20052;-81
2023/10/17 04:04:33;;;;;;;10.23;5.20;;;7.10;99.90;;;;;;5105192;28;20490;-81
2023/10/17 04:07:01;;;;;;;9.57;4.90;;;7.10;99.90;;;;;;5083499;28;20048;-82
2023/10/17 04:09:28;;;;;;;11.20;5.40;;;7.10;99.90;;;;;;5114966;28;20039;-80
2023/10/17 04:11:58;;;;;;;10.75;5.82;;;7.10;99.90;;;;;;5119262;28;20039;-81
2023/10/17 04:14:34;;;;;;;9.93;5.57;;;7.20;99.90;;;;;;5102692;28;20132;-81
2023/10/17 04:17:02;;;;;;;13.20;6.13;;;7.10;99.90;;;;;;5076540;28;20047;-81
2023/10/17 04:19:30;;;;;;;12.32;5.65;;;7.10;99.90;;;;;;5101394;28;20047;-81
2023/10/17 04:24:38;;;;;;;9.70;5.55;;;7.10;99.90;;;;;;5116541;28;20117;-82
2023/10/17 04:27:07;;;;;;;8.43;5.00;;;7.10;99.90;;;;;;5068898;28;20036;-81
2023/10/17 04:29:37;;;;;;;11.88;5.25;;;7.20;99.90;;;;;;5110206;28;20046;-83
2023/10/17 04:32:13;;;;;;;14.57;5.95;;;7.20;99.90;;;;;;5098080;28;20082;-83
2023/10/17 04:34:46;;;;;;;10.57;6.00;;;7.20;99.90;;;;;;5093400;28;20073;-82
2023/10/17 04:37:31;;;;;;;8.80;4.90;;;7.20;99.90;;;;;;5115144;28;20170;-82
2023/10/17 04:39:58;;;;;;;11.80;6.20;;;7.20;99.90;;;;;;5104035;28;20408;-80
2023/10/17 04:42:33;;;;;;;16.15;8.98;;;7.20;99.90;;;;;;5104046;28;20098;-80
2023/10/17 04:45:06;;;;;;;17.00;11.18;;;7.20;99.90;;;;;;5100301;28;20039;-81
2023/10/17 04:47:32;;;;;;;18.88;13.05;;;7.20;99.90;;;;;;5108235;28;20043;-81
2023/10/17 04:49:57;;;;;;;19.60;11.07;;;7.20;99.90;;;;;;5094201;28;20052;-80
2023/10/17 04:52:29;;;;;;;12.25;7.03;;;7.20;99.90;;;;;;5104668;28;20056;-80
2023/10/17 04:55:01;;;;;;;11.80;6.05;;;7.20;99.90;;;;;;5091151;28;20051;-81
2023/10/17 04:57:54;;;;;;;10.43;6.60;;;7.30;99.90;;;;;;5100762;28;20059;-81
2023/10/17 05:00:25;;;;;;;10.23;5.95;;;7.30;99.90;;;;;;5093531;28;20044;-80
2023/10/17 05:03:06;;;;;;;11.33;7.80;;;7.30;99.90;;;;;;5108462;28;20096;-82
2023/10/17 05:05:45;;;;;;;15.30;7.90;;;7.20;99.90;;;;;;5105899;28;20076;-81
2023/10/17 05:08:12;;;;;;;11.15;7.28;;;7.40;99.90;;;;;;5090943;28;20045;-81
2023/10/17 06:19:32;;;;;;;12.23;6.43;;;7.80;99.90;;;;;;5101117;28;20044;-81
2023/10/17 06:30:26;;;;;;;12.23;6.07;;;7.90;99.90;;;;;;5108127;28;20060;-81
2023/10/17 06:35:22;;;;;;;11.30;6.57;;;7.90;99.90;;;;;;5101015;28;20039;-81
2023/10/17 06:37:49;;;;;;;15.35;6.75;;;7.90;99.90;;;;;;5102411;28;20185;-80
2023/10/17 06:40:18;;;;;;;11.25;6.22;;;8.00;99.90;;;;;;5093759;28;20078;-80
2023/10/17 06:42:58;;;;;;;11.32;6.35;;;7.90;99.90;;;;;;5097294;28;20032;-80
2023/10/17 06:45:24;;;;;;;11.52;6.28;;;8.00;99.90;;;;;;5084267;28;20033;-80
2023/10/17 06:47:50;;;;;;;9.93;5.63;;;8.50;99.90;;;;;;5101488;28;20096;-80
2023/10/17 06:51:05;;;;;;;14.13;6.13;;;8.10;99.90;;;;;;5104344;28;20058;-80
2023/10/17 06:53:04;;;;;;;12.88;6.30;;;8.10;99.90;;;;;;5094142;28;20059;-81
2023/10/17 06:55:34;;;;;;;11.60;5.80;;;8.20;99.90;;;;;;5098555;28;20048;-79
2023/10/17 06:58:09;;;;;;;11.50;6.00;;;8.20;99.90;;;;;;5098074;28;20044;-80
2023/10/17 07:00:43;;;;;;;15.95;6.75;;;8.20;99.90;;;;;;5098846;28;20043;-82
2023/10/17 07:03:15;;;;;;;15.68;6.65;;;8.30;99.90;;;;;;5090283;28;20068;-81
2023/10/17 07:05:49;;;;;;;11.05;5.70;;;8.30;99.90;;;;;;5082762;28;20044;-80
2023/10/17 07:08:19;;;;;;;11.13;5.57;;;8.30;99.90;;;;;;5114526;28;20049;-80
2023/10/17 07:16:45;;;;;;;11.73;4.45;;;8.40;99.90;;;;;;5102452;28;20074;-80
2023/10/17 07:24:23;;;;;;;11.55;4.45;;;8.40;99.90;;;;;;5088349;28;20052;-80
2023/10/17 07:26:52;;;;;;;9.30;4.38;;;8.40;99.90;;;;;;5090710;28;20095;-84
2023/10/17 07:29:22;;;;;;;11.82;5.15;;;8.40;99.90;;;;;;5103456;28;20405;-80
2023/10/17 07:31:52;;;;;;;13.02;5.45;;;8.40;99.90;;;;;;5089244;28;20053;-80
2023/10/17 07:34:21;;;;;;;7.70;4.90;;;8.50;99.90;;;;;;5103974;28;20510;-80
2023/10/17 07:36:50;;;;;;;11.75;5.25;;;8.50;99.90;;;;;;5092633;28;20040;-80
2023/10/17 07:39:22;;;;;;;10.85;6.00;;;8.50;99.90;;;;;;5099947;28;20040;-81
2023/10/17 07:41:55;;;;;;;13.02;4.90;;;8.50;99.90;;;;;;5104090;28;20486;-80
2023/10/17 07:44:25;;;;;;;15.48;5.80;;;8.50;99.90;;;;;;5103404;28;20402;-79
2023/10/17 07:47:08;;;;;;;10.15;4.95;;;9.10;99.90;;;;;;5090246;28;20049;-80
2023/10/17 07:49:35;;;;;;;12.75;5.18;;;9.00;99.90;;;;;;5066462;28;20036;-80
2023/10/17 07:52:22;;;;;;;11.27;6.00;;;8.50;99.90;;;;;;5081287;28;20044;-80
2023/10/17 07:57:36;;;;;;;11.10;5.40;;;8.50;99.90;;;;;;5116342;28;20064;-81
2023/10/17 08:00:24;;;;;;;9.60;5.60;;;8.80;99.90;;;;;;5103282;28;20318;-81
2023/10/17 08:02:51;;;;;;;9.93;5.25;;;8.50;99.90;;;;;;5106318;28;20144;-81
2023/10/17 08:05:23;;;;;;;16.02;6.03;;;8.60;99.90;;;;;;5094306;28;20044;-82
2023/10/17 08:08:01;;;;;;;13.68;5.97;;;8.60;99.90;;;;;;5099940;28;20413;-81
2023/10/17 08:10:32;;;;;;;14.50;6.38;;;8.60;99.90;;;;;;5099156;28;20504;-80
2023/10/17 08:12:58;;;;;;;11.43;5.72;;;8.80;99.90;;;;;;5074753;28;20041;-81
2023/10/17 08:15:36;;;;;;;16.00;6.20;;;8.70;99.90;;;;;;5096312;28;20170;-80
2023/10/17 08:18:03;;;;;;;10.23;5.45;;;8.70;99.90;;;;;;5070728;28;20040;-81
2023/10/17 08:23:20;;;;;;;14.13;6.53;;;8.80;99.90;;;;;;5092669;28;20164;-80
2023/10/17 08:26:00;;;;;;;12.20;6.32;;;8.80;99.90;;;;;;5082954;28;20106;-80
2023/10/17 08:31:20;;;;;;;9.25;5.95;;;9.80;99.90;;;;;;5102377;28;20044;-80
2023/10/17 08:34:12;;;;;;;11.02;6.05;;;9.50;99.90;;;;;;5085109;28;20048;-81
2023/10/17 08:36:45;;;;;;;14.70;7.00;;;9.40;99.90;;;;;;5086009;28;20079;-80
2023/10/17 08:42:14;;;;;;;11.32;5.40;;;9.70;99.90;;;;;;5097005;28;20105;-80
2023/10/17 08:44:42;;;;;;;13.57;5.30;;;10.20;99.90;;;;;;5074150;28;20040;-80
2023/10/17 08:47:11;;;;;;;;;;;10.40;99.90;;;;;;5095517;28;20131;-81
2023/10/17 08:49:38;;;;;;;9.83;5.20;;;10.70;99.90;;;;;;5086346;28;19920;-81
2023/10/17 08:52:05;;;;;;;5.67;3.17;;;10.90;99.90;;;;;;5077119;28;20376;-79
2023/10/17 08:54:32;;;;;;;11.25;3.47;;;11.20;99.90;;;;;;5083953;28;20047;-80
2023/10/17 08:57:03;;;;;;;8.10;3.08;;;11.30;99.90;;;;;;5100042;28;20040;-80
2023/10/17 09:02:15;;;;;;;8.20;3.22;;;11.60;99.90;;;;;;5084927;28;20131;-82
2023/10/17 09:04:44;;;;;;;7.30;2.80;;;11.80;99.90;;;;;;5094473;28;20058;-80
2023/10/17 09:07:19;;;;;;;6.88;2.83;;;11.90;99.90;;;;;;5100061;28;20051;-80
2023/10/17 09:09:47;;;;;;;14.52;2.97;;;12.10;99.90;;;;;;5108537;28;20079;-80
2023/10/17 09:12:23;;;;;;;5.43;2.30;;;12.20;99.90;;;;;;5088497;28;20070;-81
2023/10/17 09:14:49;;;;;;;9.30;2.58;;;12.30;99.90;;;;;;5087270;28;20097;-81
2023/10/17 09:19:51;;;;;;;5.32;1.70;;;12.70;99.90;;;;;;5099405;28;20093;-81
2023/10/17 09:22:40;;;;;;;6.90;2.30;;;12.70;99.90;;;;;;5088649;28;20048;-80
2023/10/17 09:25:19;;;;;;;7.27;2.20;;;12.90;99.90;;;;;;5120000;28;20058;-81
2023/10/17 09:27:51;;;;;;;;;;;13.00;99.90;;;;;;5101469;28;20079;-79
2023/10/17 09:30:17;;;;;;;6.78;2.47;;;13.10;99.90;;;;;;5103129;28;19973;-81
2023/10/17 09:32:44;;;;;;;6.25;2.25;;;13.30;99.90;;;;;;5085734;28;20182;-80
2023/10/17 09:35:18;;;;;;;8.52;2.60;;;13.50;99.90;;;;;;5096609;28;20048;-80
2023/10/17 09:37:50;;;;;;;9.95;2.83;;;13.90;99.90;;;;;;5082126;28;20152;-81
2023/10/17 09:40:38;;;;;;;7.93;2.90;;;14.00;99.90;;;;;;5091451;28;20097;-81
2023/10/17 09:43:03;;;;;;;7.80;2.60;;;14.20;99.90;;;;;;5097299;28;20489;-80
2023/10/17 09:45:35;;;;;;;8.25;2.50;;;15.20;99.90;;;;;;5115649;28;20158;-80
2023/10/17 09:48:04;;;;;;;5.40;2.30;;;15.00;99.90;;;;;;5084818;28;20078;-79
2023/10/17 09:50:34;;;;;;;3.53;1.90;;;14.80;99.90;;;;;;5085137;28;20040;-81
2023/10/17 09:53:20;;;;;;;6.85;2.28;;;15.00;99.90;;;;;;5077750;28;20048;-80
2023/10/17 09:55:48;;;;;;;6.00;1.90;;;15.00;99.90;;;;;;5085122;28;20044;-81
2023/10/17 09:58:19;;;;;;;5.05;1.90;;;15.10;99.90;;;;;;5086808;28;20100;-81
2023/10/17 10:01:00;;;;;;;9.18;1.73;;;15.20;99.90;;;;;;5096673;28;20049;-81
2023/10/17 10:03:28;;;;;;;6.22;1.77;;;15.40;99.90;;;;;;5084670;28;20108;-80
2023/10/17 10:05:54;;;;;;;5.07;1.83;;;15.70;99.90;;;;;;5102776;28;20048;-82
2023/10/17 10:08:34;;;;;;;10.50;2.10;;;16.30;99.90;;;;;;5098199;28;20064;-79
2023/10/17 10:11:02;;;;;;;5.40;1.77;;;15.90;99.90;;;;;;5078405;28;20044;-81
2023/10/17 10:13:28;;;;;;;4.97;1.60;;;15.90;99.90;;;;;;5092809;28;20040;-80
2023/10/17 10:16:01;;;;;;;7.63;2.33;;;16.10;99.90;;;;;;5105796;28;20137;-79
2023/10/17 10:18:35;;;;;;;9.43;2.10;;;16.10;99.90;;;;;;5078465;28;20090;-81
2023/10/17 10:21:07;;;;;;;5.13;1.85;;;16.00;99.90;;;;;;5098053;28;20036;-81
2023/10/17 10:23:40;;;;;;;7.63;2.35;;;16.40;99.90;;;;;;5100308;28;20051;-79
2023/10/17 10:26:11;;;;;;;5.47;2.30;;;16.40;99.90;;;;;;5104077;28;20075;-81
2023/10/17 10:28:47;;;;;;;7.07;2.00;;;16.50;99.90;;;;;;5094792;28;20366;-80
2023/10/17 10:31:22;;;;;;;5.40;2.22;;;16.40;99.90;;;;;;5069416;28;20063;-80
2023/10/17 10:33:49;;;;;;;11.70;2.40;;;16.40;99.90;;;;;;5081158;28;20084;-80
2023/10/17 10:36:22;;;;;;;6.63;2.03;;;16.50;99.90;;;;;;5097641;28;20036;-80
2023/10/17 10:38:47;;;;;;;6.47;2.03;;;16.60;99.90;;;;;;5086028;28;20048;-81
2023/10/17 10:41:15;;;;;;;6.30;1.90;;;16.70;99.90;;;;;;5101836;28;20069;-81
2023/10/17 10:43:41;;;;;;;4.10;1.88;;;16.80;99.90;;;;;;5101555;28;20092;-80
2023/10/17 10:46:11;;;;;;;3.17;1.90;;;16.80;99.90;;;;;;5096185;28;20141;-79
2023/10/17 10:48:45;;;;;;;4.65;1.90;;;16.90;99.90;;;;;;5095063;28;20040;-81
2023/10/17 10:51:15;;;;;;;9.07;2.13;;;16.90;99.90;;;;;;5103304;28;20115;-82
2023/10/17 10:53:44;;;;;;;6.38;2.55;;;16.90;99.80;;;;;;5102754;28;20044;-78
2023/10/17 10:56:11;;;;;;;5.18;2.22;;;16.80;99.90;;;;;;5094677;28;20048;-82
2023/10/17 10:58:55;;;;;;;8.33;2.17;;;16.30;97.30;;;;;;5102126;28;20048;-81
2023/10/17 11:01:22;;;;;;;4.97;2.22;;;17.00;98.60;;;;;;5093428;28;20060;-81
2023/10/17 11:03:49;;;;;;;6.68;2.10;;;17.30;99.60;;;;;;5097634;28;20102;-80
2023/10/17 11:06:27;;;;;;;5.22;2.15;;;17.10;96.80;;;;;;5087444;28;20549;-81
2023/10/17 11:08:56;;;;;;;4.32;2.10;;;17.50;97.90;;;;;;5097205;28;20103;-80
2023/10/17 11:11:22;;;;;;;3.33;1.70;;;17.40;98.70;;;;;;5102204;28;20037;-80
2023/10/17 11:13:54;;;;;;;5.45;1.60;;;17.50;98.60;;;;;;5105379;28;20037;-80
2023/10/17 11:16:25;;;;;;;5.40;1.67;;;18.30;96.60;;;;;;5107473;28;20036;-81
2023/10/17 11:18:51;;;;;;;4.97;2.00;;;17.50;96.50;;;;;;5105224;28;20048;-81
2023/10/17 11:21:20;;;;;;;4.13;1.77;;;17.50;97.80;;;;;;5091653;28;20040;-81
2023/10/17 11:23:59;;;;;;;3.97;1.88;;;17.30;95.70;;;;;;5090185;28;20048;-80
2023/10/17 11:26:34;;;;;;;6.63;1.70;;;17.20;96.00;;;;;;5088717;28;20040;-80
2023/10/17 11:29:03;;;;;;;8.75;2.47;;;16.80;95.30;;;;;;5084071;28;20390;-80
2023/10/17 11:31:31;;;;;;;3.65;1.77;;;16.10;97.30;;;;;;5125533;28;20043;-80
2023/10/17 11:34:12;;;;;;;5.05;1.83;;;15.60;98.10;;;;;;5117528;28;20080;-79
2023/10/17 11:36:47;;;;;;;5.95;2.10;;;15.00;98.10;;;;;;5093199;28;20047;-80
2023/10/17 11:39:15;;;;;;;7.28;2.00;;;14.60;99.50;;;;;;5095714;28;20052;-79
2023/10/17 11:41:46;;;;;;;3.53;1.70;;;14.30;99.90;;;;;;5099928;28;20036;-81
2023/10/17 11:44:13;;;;;;;7.50;2.10;;;14.10;99.90;;;;;;5083453;28;20504;-81
2023/10/17 11:46:39;;;;;;;6.15;1.92;;;13.80;99.90;;;;;;5111183;28;20032;-79
2023/10/17 11:49:27;;;;;;;3.72;1.60;;;13.80;99.90;;;;;;5099128;28;20036;-80
2023/10/17 11:52:05;;;;;;;7.85;1.70;;;14.10;99.90;;;;;;5093033;28;20056;-81
2023/10/17 11:54:32;;;;;;;8.38;2.38;;;13.50;99.90;;;;;;5111497;28;20040;-80
2023/10/17 11:57:14;;;;;;;7.10;2.20;;;13.30;99.90;;;;;;5110079;28;20040;-80
2023/10/17 11:59:57;;;;;;;5.63;1.98;;;13.20;99.90;;;;;;5073538;28;20100;-80
2023/10/17 12:02:23;;;;;;;4.55;1.80;;;13.10;99.90;;;;;;5093487;28;20059;-81
2023/10/17 12:04:53;;;;;;;5.35;1.77;;;13.00;99.90;;;;;;5103600;28;20066;-80
2023/10/17 12:07:19;;;;;;;5.65;1.80;;;12.90;99.90;;;;;;5080497;28;20040;-80
2023/10/17 12:09:45;;;;;;;5.57;1.65;;;12.70;99.90;;;;;;5093643;28;20047;-79
2023/10/17 12:12:11;;;;;;;5.63;1.63;;;12.70;99.90;;;;;;5099449;28;20032;-79
2023/10/17 12:14:37;;;;;;;8.65;2.30;;;12.60;99.90;;;;;;5088269;28;20036;-80
2023/10/17 12:17:08;;;;;;;5.80;1.42;;;12.60;99.90;;;;;;5069766;28;20119;-79
2023/10/17 12:19:33;;;;;;;6.10;1.77;;;13.70;99.90;;;;;;5103218;28;20040;-81
2023/10/17 12:22:04;;;;;;;8.40;1.80;;;12.60;99.90;;;;;;5115036;28;20055;-81
2023/10/17 12:24:34;;;;;;;6.40;1.88;;;12.50;99.90;;;;;;5094741;28;20169;-79
2023/10/17 12:27:01;;;;;;;5.05;1.67;;;12.50;99.90;;;;;;5086998;28;20056;-80
2023/10/17 12:29:28;;;;;;;6.32;1.88;;;12.40;99.90;;;;;;5081122;28;20042;-81
2023/10/17 12:31:54;;;;;;;4.80;1.83;;;12.40;99.90;;;;;;5093729;28;20068;-79
2023/10/17 12:34:20;;;;;;;5.88;2.10;;;12.20;99.90;;;;;;5098418;28;20115;-79
2023/10/17 12:36:48;;;;;;;4.95;1.95;;;12.20;99.90;;;;;;5081349;28;20450;-81
2023/10/17 12:39:16;;;;;;;4.22;1.85;;;12.20;99.90;;;;;;5100005;28;20044;-80
2023/10/17 12:41:42;;;;;;;;;;;12.20;99.90;;;;;;5099666;28;20036;-79
2023/10/17 12:44:09;;;;;;;4.00;1.83;;;12.20;99.90;;;;;;5063511;28;19920;-80
2023/10/17 12:46:37;;;;;;;5.88;1.73;;;12.20;99.90;;;;;;5091293;28;20494;-80
2023/10/17 12:49:03;;;;;;;8.10;2.20;;;12.20;99.90;;;;;;5083484;28;20074;-81
2023/10/17 12:51:28;;;;;;;6.68;2.03;;;12.20;99.90;;;;;;5092260;28;20048;-79
2023/10/17 12:53:54;;;;;;;7.10;2.20;;;12.10;99.90;;;;;;5080922;28;20093;-77
2023/10/17 12:56:20;;;;;;;7.38;2.00;;;12.10;99.90;;;;;;5098873;28;20043;-78
2023/10/17 12:58:49;;;;;;;5.63;2.20;;;12.10;99.90;;;;;;5107227;27;20037;-79
2023/10/17 13:01:15;;;;;;;4.68;2.33;;;12.10;99.90;;;;;;5096492;28;20044;-81
2023/10/17 13:03:40;;;;;;;5.97;1.90;;;12.10;99.90;;;;;;5098846;28;20160;-81
2023/10/17 13:06:08;;;;;;;4.63;2.20;;;12.10;99.90;;;;;;5098211;28;20042;-79
2023/10/17 13:08:35;;;;;;;3.63;2.00;;;12.00;99.90;;;;;;5104594;28;20052;-79
2023/10/17 13:11:04;;;;;;;4.45;2.20;;;12.00;99.90;;;;;;5102142;28;20032;-78
2023/10/17 13:13:30;;;;;;;4.63;2.30;;;12.50;99.90;;;;;;5102334;28;20044;-79
2023/10/17 13:15:57;;;;;;;5.45;2.28;;;11.90;99.90;;;;;;5096156;28;20094;-79
2023/10/17 13:18:29;;;;;;;3.17;1.80;;;12.00;99.90;;;;;;5102138;28;20438;-79
2023/10/17 13:21:02;;;;;;;4.50;2.22;;;12.00;99.90;;;;;;5095228;28;20052;-80
2023/10/17 13:23:28;;;;;;;5.25;2.10;;;11.90;99.90;;;;;;5106713;28;20048;-80
2023/10/17 13:25:54;;;;;;;7.40;2.20;;;11.90;99.90;;;;;;5102278;28;20100;-80
2023/10/17 13:28:21;;;;;;;5.60;2.10;;;11.90;99.90;;;;;;5084192;28;20097;-81
2023/10/17 13:30:47;;;;;;;3.00;1.70;;;11.80;99.90;;;;;;5081941;28;20036;-79
2023/10/17 13:33:13;;;;;;;6.00;1.65;;;12.00;99.90;;;;;;5092701;28;20040;-79
2023/10/17 13:35:40;;;;;;;6.03;2.08;;;11.90;99.90;;;;;;5091472;28;20055;-80
2023/10/17 13:38:06;;;;;;;5.00;1.95;;;11.90;99.90;;;;;;5094423;28;20050;-81
2023/10/17 13:40:32;;;;;;;4.28;1.92;;;12.60;99.90;;;;;;5107897;28;20087;-80
2023/10/17 13:43:00;;;;;;;3.97;1.80;;;11.90;99.90;;;;;;5088328;28;20067;-80
2023/10/17 13:45:27;;;;;;;5.03;1.85;;;11.90;99.90;;;;;;5110777;28;20123;-80
2023/10/17 13:47:54;;;;;;;7.78;2.25;;;12.50;99.90;;;;;;5095373;28;20048;-80
2023/10/17 13:50:21;;;;;;;4.32;1.73;;;11.80;99.90;;;;;;5091525;28;20099;-79
2023/10/17 13:52:48;;;;;;;4.47;1.88;;;11.80;99.90;;;;;;5099898;28;20060;-80
2023/10/17 13:55:25;;;;;;;3.80;1.80;;;12.00;99.90;;;;;;5085119;28;20051;-80
2023/10/17 13:57:55;;;;;;;6.72;2.20;;;11.80;99.90;;;;;;5099680;28;20040;-79
2023/10/17 14:00:22;;;;;;;5.53;1.73;;;12.10;99.90;;;;;;5105614;28;20052;-79
2023/10/17 14:02:51;;;;;;;6.88;1.77;;;11.80;99.90;;;;;;5091383;28;20051;-79
2023/10/17 14:05:18;;;;;;;5.05;1.50;;;11.80;99.90;;;;;;5100410;28;20363;-79
2023/10/17 14:07:44;;;;;;;7.85;1.52;;;11.80;99.90;;;;;;5100381;28;20044;-78
2023/10/17 14:10:11;;;;;;;4.00;1.60;;;11.80;99.90;;;;;;5094469;28;20033;-80
2023/10/17 14:12:41;;;;;;;5.68;1.83;;;11.70;99.90;;;;;;5099201;28;20040;-80
2023/10/17 14:15:08;;;;;;;3.72;1.65;;;11.80;99.90;;;;;;5096221;28;20052;-79
2023/10/17 14:17:34;;;;;;;3.80;1.92;;;11.80;99.90;;;;;;5101399;28;20036;-79
2023/10/17 14:20:14;;;;;;;5.78;1.90;;;11.70;99.90;;;;;;5104417;28;20393;-78
2023/10/17 14:28:11;;;;;;;6.55;1.60;;;11.70;99.90;;;;;;5097439;28;20067;-78
2023/10/17 14:30:39;;;;;;;3.30;1.65;;;11.90;99.90;;;;;;5083422;28;20060;-79
2023/10/17 14:33:08;;;;;;;7.13;1.63;;;11.70;99.90;;;;;;5101294;28;20051;-81
2023/10/17 14:35:35;;;;;;;4.60;2.17;;;11.60;99.90;;;;;;5107159;28;20182;-80
2023/10/17 14:38:00;;;;;;;6.20;1.70;;;11.60;99.90;;;;;;5091686;28;20044;-78
2023/10/17 14:40:34;;;;;;;3.67;1.60;;;11.60;99.90;;;;;;5086603;28;20032;-80
2023/10/17 14:43:00;;;;;;;3.97;1.77;;;11.40;99.90;;;;;;5106674;28;20086;-80
2023/10/17 14:45:26;;;;;;;3.47;1.42;;;12.50;99.90;;;;;;5115108;28;20059;-79
2023/10/17 14:47:52;;;;;;;4.53;1.40;;;11.50;99.90;;;;;;5117494;28;20425;-79
2023/10/17 14:50:18;;;;;;;6.13;1.50;;;11.50;99.90;;;;;;5104696;28;20047;-78
2023/10/17 14:52:44;;;;;;;6.53;1.92;;;11.50;99.90;;;;;;5086002;28;20035;-81
2023/10/17 14:55:23;;;;;;;2.63;1.40;;;11.50;99.90;;;;;;5121950;28;20127;-78
2023/10/17 14:57:49;;;;;;;5.30;1.70;;;11.50;99.90;;;;;;5098988;28;20497;-78
2023/10/17 15:00:15;;;;;;;2.47;1.40;;;11.70;99.90;;;;;;5093543;28;20115;-78
2023/10/17 15:02:44;;;;;;;6.05;1.75;;;11.50;99.90;;;;;;5113628;28;20051;-78
2023/10/17 15:05:13;;;;;;;4.22;1.60;;;11.50;99.90;;;;;;5090439;28;20028;-78
2023/10/17 15:07:41;;;;;;;6.63;1.60;;;11.40;99.90;;;;;;5095772;28;20044;-78
2023/10/17 15:10:12;;;;;;;4.57;1.88;;;11.50;99.90;;;;;;5088835;28;20458;-79
2023/10/17 15:12:42;;;;;;;4.88;1.70;;;11.40;99.90;;;;;;5088690;28;20486;-78
2023/10/17 15:15:13;;;;;;;4.82;1.50;;;11.40;99.90;;;;;;5104773;28;20104;-78
2023/10/17 15:17:41;;;;;;;3.45;1.73;;;11.30;99.90;;;;;;5083432;28;20048;-77